RJGG

Chubu Centrair International Airport

Tokoname, Japan
TAF RJGG 162308Z 1700/1806 30020KT 9999 FEW020 SCT040
Issued Valid From Valid To
Jan-16 @ 23:08 UTC
(6 hours ago)
Jan-17 @ 00:00 UTC
(6 hours ago)
Jan-18 @ 06:00 UTC
(in 24 hours)
Jan-17 @ 00:00 to Jan-18 @ 06:00
TAF RJGG 162308Z 1700/1806 30020KT 9999 FEW020 SCT040
Wind Visibility Clouds
300° at 20 knots 10,000+ meters
  • Few at 2,000' AGL
  • Scattered at 4,000' AGL
TAF RJGG 162308Z 1700/1806 30020KT 9999 FEW020 SCT040
Issued Jan-16 @ 23:08 UTC
(6 hours ago)
Valid From Jan-17 @ 00:00 UTC
(6 hours ago)
Valid To Jan-18 @ 06:00 UTC
(in 24 hours)
Jan-17 @ 00:00 - Jan-18 @ 06:00
Wind Visibility
300° at 20 knots 10,000+ meters
Clouds
  • Few at 2,000' AGL
  • Scattered at 4,000' AGL